sensor_id;sensor_type;location;lat;lon;timestamp;P1;durP1;ratioP1;P2;durP2;ratioP2
20084;SDS011;10202;48.474;9.138;2023-08-12T00:00:39;7.70;;;4.25;;
20084;SDS011;10202;48.474;9.138;2023-08-12T00:03:06;7.15;;;4.47;;
20084;SDS011;10202;48.474;9.138;2023-08-12T00:05:33;5.38;;;4.22;;
20084;SDS011;10202;48.474;9.138;2023-08-12T00:08:00;8.02;;;3.72;;
20084;SDS011;10202;48.474;9.138;2023-08-12T00:10:29;6.45;;;3.78;;
20084;SDS011;10202;48.474;9.138;2023-08-12T00:12:57;5.32;;;3.90;;
20084;SDS011;10202;48.474;9.138;2023-08-12T00:15:24;4.72;;;4.18;;
20084;SDS011;10202;48.474;9.138;2023-08-12T00:17:50;5.35;;;3.85;;
20084;SDS011;10202;48.474;9.138;2023-08-12T00:20:18;4.20;;;3.65;;
20084;SDS011;10202;48.474;9.138;2023-08-12T00:22:45;7.57;;;3.70;;
20084;SDS011;10202;48.474;9.138;2023-08-12T00:25:15;4.70;;;3.60;;
20084;SDS011;10202;48.474;9.138;2023-08-12T00:27:42;7.45;;;3.80;;
20084;SDS011;10202;48.474;9.138;2023-08-12T00:30:08;4.65;;;3.75;;
20084;SDS011;10202;48.474;9.138;2023-08-12T00:32:37;4.20;;;3.13;;
20084;SDS011;10202;48.474;9.138;2023-08-12T00:35:03;3.85;;;3.45;;
20084;SDS011;10202;48.474;9.138;2023-08-12T00:37:30;6.68;;;3.80;;
20084;SDS011;10202;48.474;9.138;2023-08-12T00:39:58;4.45;;;3.47;;
20084;SDS011;10202;48.474;9.138;2023-08-12T00:42:25;7.10;;;3.50;;
20084;SDS011;10202;48.474;9.138;2023-08-12T00:44:57;3.92;;;3.28;;
20084;SDS011;10202;48.474;9.138;2023-08-12T00:47:27;7.38;;;3.78;;
20084;SDS011;10202;48.474;9.138;2023-08-12T00:49:59;6.70;;;3.72;;
20084;SDS011;10202;48.474;9.138;2023-08-12T00:52:26;6.95;;;3.80;;
20084;SDS011;10202;48.474;9.138;2023-08-12T00:54:54;8.52;;;3.47;;
20084;SDS011;10202;48.474;9.138;2023-08-12T00:57:22;4.30;;;3.78;;
20084;SDS011;10202;48.474;9.138;2023-08-12T00:59:47;6.03;;;3.65;;
20084;SDS011;10202;48.474;9.138;2023-08-12T01:02:14;4.65;;;3.38;;
20084;SDS011;10202;48.474;9.138;2023-08-12T01:04:42;4.28;;;3.83;;
20084;SDS011;10202;48.474;9.138;2023-08-12T01:07:09;5.57;;;3.67;;
20084;SDS011;10202;48.474;9.138;2023-08-12T01:09:39;4.80;;;3.88;;
20084;SDS011;10202;48.474;9.138;2023-08-12T01:15:08;4.57;;;3.53;;
20084;SDS011;10202;48.474;9.138;2023-08-12T01:17:37;4.72;;;4.07;;
20084;SDS011;10202;48.474;9.138;2023-08-12T01:20:04;5.82;;;4.18;;
20084;SDS011;10202;48.474;9.138;2023-08-12T01:22:37;8.80;;;3.80;;
20084;SDS011;10202;48.474;9.138;2023-08-12T01:25:07;8.40;;;3.97;;
20084;SDS011;10202;48.474;9.138;2023-08-12T01:27:35;3.92;;;3.50;;
20084;SDS011;10202;48.474;9.138;2023-08-12T01:30:04;4.72;;;3.50;;
20084;SDS011;10202;48.474;9.138;2023-08-12T01:32:36;4.30;;;3.70;;
20084;SDS011;10202;48.474;9.138;2023-08-12T01:35:09;4.38;;;3.97;;
20084;SDS011;10202;48.474;9.138;2023-08-12T01:37:48;6.47;;;3.83;;
20084;SDS011;10202;48.474;9.138;2023-08-12T01:40:17;7.10;;;4.18;;
20084;SDS011;10202;48.474;9.138;2023-08-12T01:42:44;10.70;;;4.15;;
20084;SDS011;10202;48.474;9.138;2023-08-12T01:45:10;5.47;;;3.90;;
20084;SDS011;10202;48.474;9.138;2023-08-12T01:47:35;7.32;;;3.88;;
20084;SDS011;10202;48.474;9.138;2023-08-12T01:50:01;5.28;;;3.78;;
20084;SDS011;10202;48.474;9.138;2023-08-12T01:52:26;11.80;;;4.30;;
20084;SDS011;10202;48.474;9.138;2023-08-12T01:54:53;6.22;;;4.25;;
20084;SDS011;10202;48.474;9.138;2023-08-12T01:57:23;6.72;;;4.07;;
20084;SDS011;10202;48.474;9.138;2023-08-12T01:59:51;4.82;;;3.90;;
20084;SDS011;10202;48.474;9.138;2023-08-12T02:02:18;6.80;;;4.38;;
20084;SDS011;10202;48.474;9.138;2023-08-12T02:04:44;9.93;;;4.80;;
20084;SDS011;10202;48.474;9.138;2023-08-12T02:07:12;8.15;;;4.60;;
20084;SDS011;10202;48.474;9.138;2023-08-12T02:09:38;5.93;;;4.38;;
20084;SDS011;10202;48.474;9.138;2023-08-12T02:12:03;6.05;;;4.53;;
20084;SDS011;10202;48.474;9.138;2023-08-12T02:14:29;5.47;;;4.22;;
20084;SDS011;10202;48.474;9.138;2023-08-12T02:16:57;5.88;;;4.00;;
20084;SDS011;10202;48.474;9.138;2023-08-12T02:19:32;8.30;;;4.05;;
20084;SDS011;10202;48.474;9.138;2023-08-12T02:22:03;5.95;;;3.75;;
20084;SDS011;10202;48.474;9.138;2023-08-12T02:24:31;10.25;;;4.50;;
20084;SDS011;10202;48.474;9.138;2023-08-12T02:27:01;7.10;;;4.45;;
20084;SDS011;10202;48.474;9.138;2023-08-12T02:29:27;6.95;;;3.90;;
20084;SDS011;10202;48.474;9.138;2023-08-12T02:31:54;4.70;;;4.10;;
20084;SDS011;10202;48.474;9.138;2023-08-12T02:34:23;5.05;;;4.22;;
20084;SDS011;10202;48.474;9.138;2023-08-12T02:36:50;4.93;;;3.88;;
20084;SDS011;10202;48.474;9.138;2023-08-12T02:39:18;5.95;;;4.30;;
20084;SDS011;10202;48.474;9.138;2023-08-12T02:41:43;8.15;;;3.97;;
20084;SDS011;10202;48.474;9.138;2023-08-12T02:44:11;5.47;;;4.00;;
20084;SDS011;10202;48.474;9.138;2023-08-12T02:46:39;5.40;;;3.92;;
20084;SDS011;10202;48.474;9.138;2023-08-12T02:49:09;5.68;;;4.00;;
20084;SDS011;10202;48.474;9.138;2023-08-12T02:51:37;6.05;;;4.00;;
20084;SDS011;10202;48.474;9.138;2023-08-12T02:54:04;5.78;;;4.20;;
20084;SDS011;10202;48.474;9.138;2023-08-12T02:56:30;7.82;;;4.20;;
20084;SDS011;10202;48.474;9.138;2023-08-12T02:58:55;5.80;;;3.70;;
20084;SDS011;10202;48.474;9.138;2023-08-12T03:01:23;8.77;;;4.05;;
20084;SDS011;10202;48.474;9.138;2023-08-12T03:03:50;9.43;;;4.18;;
20084;SDS011;10202;48.474;9.138;2023-08-12T03:06:15;5.63;;;4.00;;
20084;SDS011;10202;48.474;9.138;2023-08-12T03:08:41;6.28;;;4.15;;
20084;SDS011;10202;48.474;9.138;2023-08-12T03:11:09;7.90;;;4.38;;
20084;SDS011;10202;48.474;9.138;2023-08-12T03:13:38;7.63;;;4.07;;
20084;SDS011;10202;48.474;9.138;2023-08-12T03:16:07;7.28;;;4.07;;
20084;SDS011;10202;48.474;9.138;2023-08-12T03:18:39;6.93;;;4.20;;
20084;SDS011;10202;48.474;9.138;2023-08-12T03:21:07;4.68;;;3.90;;
20084;SDS011;10202;48.474;9.138;2023-08-12T03:23:36;5.50;;;4.07;;
20084;SDS011;10202;48.474;9.138;2023-08-12T03:26:07;4.03;;;3.60;;
20084;SDS011;10202;48.474;9.138;2023-08-12T03:28:36;7.50;;;4.30;;
20084;SDS011;10202;48.474;9.138;2023-08-12T03:31:08;6.20;;;4.20;;
20084;SDS011;10202;48.474;9.138;2023-08-12T03:33:37;6.90;;;4.63;;
20084;SDS011;10202;48.474;9.138;2023-08-12T03:36:07;10.70;;;4.72;;
20084;SDS011;10202;48.474;9.138;2023-08-12T03:38:36;9.02;;;4.35;;
20084;SDS011;10202;48.474;9.138;2023-08-12T03:41:09;4.40;;;4.00;;
20084;SDS011;10202;48.474;9.138;2023-08-12T03:43:42;9.82;;;4.68;;
20084;SDS011;10202;48.474;9.138;2023-08-12T03:46:10;5.15;;;4.13;;
20084;SDS011;10202;48.474;9.138;2023-08-12T03:48:38;7.65;;;4.28;;
20084;SDS011;10202;48.474;9.138;2023-08-12T03:51:06;5.63;;;4.38;;
20084;SDS011;10202;48.474;9.138;2023-08-12T03:53:34;7.38;;;4.22;;
20084;SDS011;10202;48.474;9.138;2023-08-12T03:56:06;6.60;;;4.57;;
20084;SDS011;10202;48.474;9.138;2023-08-12T03:58:32;4.95;;;4.45;;
20084;SDS011;10202;48.474;9.138;2023-08-12T04:01:00;5.10;;;4.23;;
20084;SDS011;10202;48.474;9.138;2023-08-12T04:03:26;8.05;;;4.13;;
20084;SDS011;10202;48.474;9.138;2023-08-12T04:05:52;5.43;;;4.40;;
20084;SDS011;10202;48.474;9.138;2023-08-12T04:08:22;5.25;;;4.05;;
20084;SDS011;10202;48.474;9.138;2023-08-12T04:10:51;5.40;;;4.05;;
20084;SDS011;10202;48.474;9.138;2023-08-12T04:13:17;6.82;;;4.03;;
20084;SDS011;10202;48.474;9.138;2023-08-12T04:15:48;5.10;;;3.92;;
20084;SDS011;10202;48.474;9.138;2023-08-12T04:18:14;4.97;;;3.92;;
20084;SDS011;10202;48.474;9.138;2023-08-12T04:20:44;15.65;;;4.22;;
20084;SDS011;10202;48.474;9.138;2023-08-12T04:23:11;7.47;;;3.80;;
20084;SDS011;10202;48.474;9.138;2023-08-12T04:25:39;4.72;;;4.00;;
20084;SDS011;10202;48.474;9.138;2023-08-12T04:28:08;7.18;;;3.90;;
20084;SDS011;10202;48.474;9.138;2023-08-12T04:30:33;5.60;;;4.30;;
20084;SDS011;10202;48.474;9.138;2023-08-12T04:33:01;5.63;;;4.05;;
20084;SDS011;10202;48.474;9.138;2023-08-12T04:35:30;5.93;;;4.03;;
20084;SDS011;10202;48.474;9.138;2023-08-12T04:38:03;6.32;;;4.00;;
20084;SDS011;10202;48.474;9.138;2023-08-12T04:40:29;5.47;;;3.90;;
20084;SDS011;10202;48.474;9.138;2023-08-12T04:43:02;5.00;;;3.97;;
20084;SDS011;10202;48.474;9.138;2023-08-12T04:45:27;5.53;;;3.95;;
20084;SDS011;10202;48.474;9.138;2023-08-12T04:47:53;7.80;;;4.10;;
20084;SDS011;10202;48.474;9.138;2023-08-12T04:50:21;10.48;;;4.20;;
20084;SDS011;10202;48.474;9.138;2023-08-12T04:52:51;3.88;;;3.35;;
20084;SDS011;10202;48.474;9.138;2023-08-12T04:55:21;8.13;;;4.20;;
20084;SDS011;10202;48.474;9.138;2023-08-12T04:57:47;7.65;;;4.00;;
20084;SDS011;10202;48.474;9.138;2023-08-12T05:00:12;5.15;;;3.70;;
20084;SDS011;10202;48.474;9.138;2023-08-12T05:02:40;5.37;;;3.73;;
20084;SDS011;10202;48.474;9.138;2023-08-12T05:05:09;4.95;;;3.92;;
20084;SDS011;10202;48.474;9.138;2023-08-12T05:07:35;4.78;;;4.03;;
20084;SDS011;10202;48.474;9.138;2023-08-12T05:10:06;6.53;;;3.97;;
20084;SDS011;10202;48.474;9.138;2023-08-12T05:12:31;4.93;;;3.70;;
20084;SDS011;10202;48.474;9.138;2023-08-12T05:14:57;5.13;;;3.90;;
20084;SDS011;10202;48.474;9.138;2023-08-12T05:17:22;4.82;;;3.47;;
20084;SDS011;10202;48.474;9.138;2023-08-12T05:19:50;5.20;;;3.47;;
20084;SDS011;10202;48.474;9.138;2023-08-12T05:22:21;4.38;;;3.97;;
20084;SDS011;10202;48.474;9.138;2023-08-12T05:24:49;8.80;;;4.35;;
20084;SDS011;10202;48.474;9.138;2023-08-12T05:27:16;7.00;;;3.92;;
20084;SDS011;10202;48.474;9.138;2023-08-12T05:29:44;5.32;;;3.58;;
20084;SDS011;10202;48.474;9.138;2023-08-12T05:32:09;6.18;;;3.80;;
20084;SDS011;10202;48.474;9.138;2023-08-12T05:34:34;8.68;;;3.58;;
20084;SDS011;10202;48.474;9.138;2023-08-12T05:37:02;4.63;;;3.83;;
20084;SDS011;10202;48.474;9.138;2023-08-12T05:39:33;4.22;;;3.50;;
20084;SDS011;10202;48.474;9.138;2023-08-12T05:41:58;4.82;;;3.80;;
20084;SDS011;10202;48.474;9.138;2023-08-12T05:44:23;6.32;;;4.15;;
20084;SDS011;10202;48.474;9.138;2023-08-12T05:46:51;4.60;;;3.78;;
20084;SDS011;10202;48.474;9.138;2023-08-12T05:49:17;4.07;;;3.67;;
20084;SDS011;10202;48.474;9.138;2023-08-12T05:51:47;6.95;;;4.25;;
20084;SDS011;10202;48.474;9.138;2023-08-12T05:54:15;8.27;;;4.20;;
20084;SDS011;10202;48.474;9.138;2023-08-12T05:56:43;6.03;;;3.70;;
20084;SDS011;10202;48.474;9.138;2023-08-12T05:59:10;4.73;;;3.70;;
20084;SDS011;10202;48.474;9.138;2023-08-12T06:01:41;7.13;;;3.83;;
20084;SDS011;10202;48.474;9.138;2023-08-12T06:04:11;4.85;;;3.63;;
20084;SDS011;10202;48.474;9.138;2023-08-12T06:06:37;4.25;;;3.85;;
20084;SDS011;10202;48.474;9.138;2023-08-12T06:09:04;4.47;;;3.60;;
20084;SDS011;10202;48.474;9.138;2023-08-12T06:11:32;5.90;;;3.92;;
20084;SDS011;10202;48.474;9.138;2023-08-12T06:14:00;4.85;;;4.07;;
20084;SDS011;10202;48.474;9.138;2023-08-12T06:16:27;4.90;;;3.65;;
20084;SDS011;10202;48.474;9.138;2023-08-12T06:18:58;7.20;;;3.83;;
20084;SDS011;10202;48.474;9.138;2023-08-12T06:21:25;4.38;;;3.70;;
20084;SDS011;10202;48.474;9.138;2023-08-12T06:23:51;4.75;;;4.05;;
20084;SDS011;10202;48.474;9.138;2023-08-12T06:26:24;6.85;;;3.65;;
20084;SDS011;10202;48.474;9.138;2023-08-12T06:28:51;4.55;;;3.80;;
20084;SDS011;10202;48.474;9.138;2023-08-12T06:31:21;5.68;;;4.00;;
20084;SDS011;10202;48.474;9.138;2023-08-12T06:33:49;9.70;;;3.58;;
20084;SDS011;10202;48.474;9.138;2023-08-12T06:36:16;7.25;;;3.45;;
20084;SDS011;10202;48.474;9.138;2023-08-12T06:38:45;4.78;;;3.70;;
20084;SDS011;10202;48.474;9.138;2023-08-12T06:41:13;6.18;;;3.55;;
20084;SDS011;10202;48.474;9.138;2023-08-12T06:43:38;4.57;;;3.70;;
20084;SDS011;10202;48.474;9.138;2023-08-12T06:46:06;7.78;;;4.10;;
20084;SDS011;10202;48.474;9.138;2023-08-12T06:48:31;5.38;;;3.90;;
20084;SDS011;10202;48.474;9.138;2023-08-12T06:51:02;9.77;;;3.63;;
20084;SDS011;10202;48.474;9.138;2023-08-12T06:53:32;4.15;;;3.70;;
20084;SDS011;10202;48.474;9.138;2023-08-12T06:55:59;7.05;;;3.38;;
20084;SDS011;10202;48.474;9.138;2023-08-12T06:58:30;6.30;;;3.85;;
20084;SDS011;10202;48.474;9.138;2023-08-12T07:00:58;5.03;;;3.65;;
20084;SDS011;10202;48.474;9.138;2023-08-12T07:03:29;4.97;;;3.95;;
20084;SDS011;10202;48.474;9.138;2023-08-12T07:05:54;5.45;;;4.20;;
20084;SDS011;10202;48.474;9.138;2023-08-12T07:08:20;4.10;;;3.63;;
20084;SDS011;10202;48.474;9.138;2023-08-12T07:10:48;6.53;;;4.00;;
20084;SDS011;10202;48.474;9.138;2023-08-12T07:13:15;4.10;;;3.70;;
20084;SDS011;10202;48.474;9.138;2023-08-12T07:15:46;8.00;;;4.40;;
20084;SDS011;10202;48.474;9.138;2023-08-12T07:18:12;4.10;;;3.70;;
20084;SDS011;10202;48.474;9.138;2023-08-12T07:20:37;5.10;;;3.80;;
20084;SDS011;10202;48.474;9.138;2023-08-12T07:23:10;6.18;;;3.65;;
20084;SDS011;10202;48.474;9.138;2023-08-12T07:25:35;6.07;;;3.97;;
20084;SDS011;10202;48.474;9.138;2023-08-12T07:28:05;4.50;;;3.88;;
20084;SDS011;10202;48.474;9.138;2023-08-12T07:30:34;4.63;;;3.65;;
20084;SDS011;10202;48.474;9.138;2023-08-12T07:33:06;8.10;;;3.90;;
20084;SDS011;10202;48.474;9.138;2023-08-12T07:35:31;6.43;;;4.13;;
20084;SDS011;10202;48.474;9.138;2023-08-12T07:38:00;5.68;;;4.22;;
20084;SDS011;10202;48.474;9.138;2023-08-12T07:40:25;4.35;;;3.92;;
20084;SDS011;10202;48.474;9.138;2023-08-12T07:42:53;4.57;;;3.80;;
20084;SDS011;10202;48.474;9.138;2023-08-12T07:45:19;6.47;;;4.13;;
20084;SDS011;10202;48.474;9.138;2023-08-12T07:47:44;4.35;;;3.67;;
20084;SDS011;10202;48.474;9.138;2023-08-12T07:50:09;7.47;;;4.18;;
20084;SDS011;10202;48.474;9.138;2023-08-12T07:52:35;11.15;;;4.03;;
20084;SDS011;10202;48.474;9.138;2023-08-12T07:55:03;6.13;;;3.90;;
20084;SDS011;10202;48.474;9.138;2023-08-12T07:57:29;5.38;;;3.60;;
20084;SDS011;10202;48.474;9.138;2023-08-12T07:59:57;6.25;;;4.03;;
20084;SDS011;10202;48.474;9.138;2023-08-12T08:02:22;4.57;;;3.97;;
20084;SDS011;10202;48.474;9.138;2023-08-12T08:04:48;4.45;;;3.95;;
20084;SDS011;10202;48.474;9.138;2023-08-12T08:07:19;4.45;;;4.05;;
20084;SDS011;10202;48.474;9.138;2023-08-12T08:09:47;6.53;;;4.68;;
20084;SDS011;10202;48.474;9.138;2023-08-12T08:12:17;5.00;;;3.70;;
20084;SDS011;10202;48.474;9.138;2023-08-12T08:14:43;7.30;;;4.47;;
20084;SDS011;10202;48.474;9.138;2023-08-12T08:17:11;4.55;;;4.15;;
20084;SDS011;10202;48.474;9.138;2023-08-12T08:19:38;6.18;;;4.45;;
20084;SDS011;10202;48.474;9.138;2023-08-12T08:22:06;12.40;;;4.75;;
20084;SDS011;10202;48.474;9.138;2023-08-12T08:24:34;6.10;;;4.43;;
20084;SDS011;10202;48.474;9.138;2023-08-12T08:27:01;8.25;;;4.20;;
20084;SDS011;10202;48.474;9.138;2023-08-12T08:29:32;4.90;;;4.10;;
20084;SDS011;10202;48.474;9.138;2023-08-12T08:32:04;5.78;;;4.22;;
20084;SDS011;10202;48.474;9.138;2023-08-12T08:34:30;5.20;;;4.38;;
20084;SDS011;10202;48.474;9.138;2023-08-12T08:36:55;4.47;;;4.03;;
20084;SDS011;10202;48.474;9.138;2023-08-12T08:39:21;7.35;;;4.13;;
20084;SDS011;10202;48.474;9.138;2023-08-12T08:41:49;6.35;;;3.72;;
20084;SDS011;10202;48.474;9.138;2023-08-12T08:44:14;8.35;;;4.35;;
20084;SDS011;10202;48.474;9.138;2023-08-12T08:46:41;6.40;;;4.07;;
20084;SDS011;10202;48.474;9.138;2023-08-12T08:49:11;4.45;;;4.05;;
20084;SDS011;10202;48.474;9.138;2023-08-12T08:51:37;7.05;;;3.92;;
20084;SDS011;10202;48.474;9.138;2023-08-12T08:54:02;7.22;;;4.10;;
20084;SDS011;10202;48.474;9.138;2023-08-12T08:56:31;8.88;;;3.88;;
20084;SDS011;10202;48.474;9.138;2023-08-12T08:58:57;7.18;;;3.88;;
20084;SDS011;10202;48.474;9.138;2023-08-12T09:01:26;5.30;;;3.90;;
20084;SDS011;10202;48.474;9.138;2023-08-12T09:03:54;5.07;;;3.80;;
20084;SDS011;10202;48.474;9.138;2023-08-12T09:06:21;7.55;;;4.10;;
20084;SDS011;10202;48.474;9.138;2023-08-12T09:08:49;7.00;;;3.47;;
20084;SDS011;10202;48.474;9.138;2023-08-12T09:11:17;5.15;;;3.83;;
20084;SDS011;10202;48.474;9.138;2023-08-12T09:13:48;4.30;;;3.90;;
20084;SDS011;10202;48.474;9.138;2023-08-12T09:16:16;16.90;;;5.57;;
20084;SDS011;10202;48.474;9.138;2023-08-12T09:18:47;8.80;;;4.95;;
20084;SDS011;10202;48.474;9.138;2023-08-12T09:21:12;10.15;;;5.40;;
20084;SDS011;10202;48.474;9.138;2023-08-12T09:23:42;10.35;;;4.63;;
20084;SDS011;10202;48.474;9.138;2023-08-12T09:26:18;4.20;;;3.80;;
20084;SDS011;10202;48.474;9.138;2023-08-12T09:28:47;8.10;;;3.78;;
20084;SDS011;10202;48.474;9.138;2023-08-12T09:33:50;3.85;;;3.55;;
20084;SDS011;10202;48.474;9.138;2023-08-12T09:36:22;3.88;;;3.40;;
20084;SDS011;10202;48.474;9.138;2023-08-12T09:38:48;6.38;;;3.17;;
20084;SDS011;10202;48.474;9.138;2023-08-12T09:41:16;6.38;;;3.75;;
20084;SDS011;10202;48.474;9.138;2023-08-12T09:43:42;4.30;;;3.42;;
20084;SDS011;10202;48.474;9.138;2023-08-12T09:46:10;8.98;;;3.55;;
20084;SDS011;10202;48.474;9.138;2023-08-12T09:48:39;4.50;;;3.53;;
20084;SDS011;10202;48.474;9.138;2023-08-12T09:51:05;5.85;;;2.95;;
20084;SDS011;10202;48.474;9.138;2023-08-12T09:53:33;4.70;;;3.25;;
20084;SDS011;10202;48.474;9.138;2023-08-12T09:56:11;9.18;;;3.85;;
20084;SDS011;10202;48.474;9.138;2023-08-12T09:58:39;7.68;;;3.30;;
20084;SDS011;10202;48.474;9.138;2023-08-12T10:01:08;3.85;;;3.40;;
20084;SDS011;10202;48.474;9.138;2023-08-12T10:03:38;5.15;;;2.72;;
20084;SDS011;10202;48.474;9.138;2023-08-12T10:06:07;6.35;;;3.00;;
20084;SDS011;10202;48.474;9.138;2023-08-12T10:08:33;8.45;;;3.17;;
20084;SDS011;10202;48.474;9.138;2023-08-12T10:11:03;4.28;;;3.65;;
20084;SDS011;10202;48.474;9.138;2023-08-12T10:13:31;4.30;;;3.28;;
20084;SDS011;10202;48.474;9.138;2023-08-12T10:15:56;3.53;;;3.15;;
20084;SDS011;10202;48.474;9.138;2023-08-12T10:18:26;6.15;;;3.13;;
20084;SDS011;10202;48.474;9.138;2023-08-12T10:20:53;11.10;;;3.58;;
20084;SDS011;10202;48.474;9.138;2023-08-12T10:23:22;5.47;;;3.30;;
20084;SDS011;10202;48.474;9.138;2023-08-12T10:25:50;5.28;;;3.55;;
20084;SDS011;10202;48.474;9.138;2023-08-12T10:28:20;3.83;;;3.38;;
20084;SDS011;10202;48.474;9.138;2023-08-12T10:30:46;5.00;;;3.63;;
20084;SDS011;10202;48.474;9.138;2023-08-12T10:33:14;4.55;;;3.42;;
20084;SDS011;10202;48.474;9.138;2023-08-12T10:35:44;5.05;;;3.47;;
20084;SDS011;10202;48.474;9.138;2023-08-12T10:38:11;4.25;;;3.00;;
20084;SDS011;10202;48.474;9.138;2023-08-12T10:40:41;3.45;;;2.88;;
20084;SDS011;10202;48.474;9.138;2023-08-12T10:43:09;4.60;;;3.47;;
20084;SDS011;10202;48.474;9.138;2023-08-12T10:46:07;8.27;;;3.70;;
20084;SDS011;10202;48.474;9.138;2023-08-12T10:48:28;6.10;;;3.10;;
20084;SDS011;10202;48.474;9.138;2023-08-12T10:50:55;3.35;;;2.85;;
20084;SDS011;10202;48.474;9.138;2023-08-12T10:53:31;3.47;;;2.78;;
20084;SDS011;10202;48.474;9.138;2023-08-12T10:56:02;3.42;;;2.78;;
20084;SDS011;10202;48.474;9.138;2023-08-12T10:58:37;4.60;;;2.90;;
20084;SDS011;10202;48.474;9.138;2023-08-12T11:01:08;5.70;;;2.80;;
20084;SDS011;10202;48.474;9.138;2023-08-12T11:03:41;2.95;;;2.38;;
20084;SDS011;10202;48.474;9.138;2023-08-12T11:06:07;8.57;;;2.90;;
20084;SDS011;10202;48.474;9.138;2023-08-12T11:08:35;5.03;;;2.50;;
20084;SDS011;10202;48.474;9.138;2023-08-12T11:11:03;3.10;;;2.75;;
20084;SDS011;10202;48.474;9.138;2023-08-12T11:13:46;3.58;;;2.67;;
20084;SDS011;10202;48.474;9.138;2023-08-12T11:16:14;3.42;;;2.70;;
20084;SDS011;10202;48.474;9.138;2023-08-12T11:18:42;6.22;;;2.45;;
20084;SDS011;10202;48.474;9.138;2023-08-12T11:21:08;3.40;;;2.30;;
20084;SDS011;10202;48.474;9.138;2023-08-12T11:23:33;2.97;;;1.98;;
20084;SDS011;10202;48.474;9.138;2023-08-12T11:26:04;5.35;;;2.30;;
20084;SDS011;10202;48.474;9.138;2023-08-12T11:28:32;5.75;;;2.05;;
20084;SDS011;10202;48.474;9.138;2023-08-12T11:31:02;3.70;;;2.20;;
20084;SDS011;10202;48.474;9.138;2023-08-12T11:33:32;2.92;;;2.20;;
20084;SDS011;10202;48.474;9.138;2023-08-12T11:35:58;4.80;;;2.60;;
20084;SDS011;10202;48.474;9.138;2023-08-12T11:38:23;2.55;;;2.22;;
20084;SDS011;10202;48.474;9.138;2023-08-12T11:40:53;3.80;;;2.40;;
20084;SDS011;10202;48.474;9.138;2023-08-12T11:43:21;2.67;;;2.30;;
20084;SDS011;10202;48.474;9.138;2023-08-12T11:45:47;4.97;;;2.40;;
20084;SDS011;10202;48.474;9.138;2023-08-12T11:48:13;3.65;;;2.53;;
20084;SDS011;10202;48.474;9.138;2023-08-12T11:50:47;6.43;;;2.60;;
20084;SDS011;10202;48.474;9.138;2023-08-12T11:53:17;3.47;;;2.50;;
20084;SDS011;10202;48.474;9.138;2023-08-12T11:55:45;4.15;;;2.22;;
20084;SDS011;10202;48.474;9.138;2023-08-12T11:58:13;3.22;;;2.10;;
20084;SDS011;10202;48.474;9.138;2023-08-12T12:00:47;3.33;;;2.33;;
20084;SDS011;10202;48.474;9.138;2023-08-12T12:03:18;3.35;;;2.42;;
20084;SDS011;10202;48.474;9.138;2023-08-12T12:05:45;4.90;;;2.35;;
20084;SDS011;10202;48.474;9.138;2023-08-12T12:08:11;4.05;;;2.50;;
20084;SDS011;10202;48.474;9.138;2023-08-12T12:10:39;5.05;;;2.63;;
20084;SDS011;10202;48.474;9.138;2023-08-12T12:13:07;3.92;;;2.58;;
20084;SDS011;10202;48.474;9.138;2023-08-12T12:15:46;11.88;;;2.90;;
20084;SDS011;10202;48.474;9.138;2023-08-12T12:18:13;3.78;;;2.60;;
20084;SDS011;10202;48.474;9.138;2023-08-12T12:20:53;5.32;;;2.53;;
20084;SDS011;10202;48.474;9.138;2023-08-12T12:23:30;3.50;;;2.90;;
20084;SDS011;10202;48.474;9.138;2023-08-12T12:25:56;4.38;;;2.40;;
20084;SDS011;10202;48.474;9.138;2023-08-12T12:28:28;3.47;;;2.80;;
20084;SDS011;10202;48.474;9.138;2023-08-12T12:30:54;8.55;;;2.97;;
20084;SDS011;10202;48.474;9.138;2023-08-12T12:33:22;6.50;;;2.75;;
20084;SDS011;10202;48.474;9.138;2023-08-12T12:35:52;5.38;;;3.13;;
20084;SDS011;10202;48.474;9.138;2023-08-12T12:38:20;7.88;;;2.75;;
20084;SDS011;10202;48.474;9.138;2023-08-12T12:40:45;7.93;;;2.85;;
20084;SDS011;10202;48.474;9.138;2023-08-12T12:43:11;2.60;;;2.40;;
20084;SDS011;10202;48.474;9.138;2023-08-12T12:45:38;4.68;;;3.03;;
20084;SDS011;10202;48.474;9.138;2023-08-12T12:48:06;8.15;;;3.90;;
20084;SDS011;10202;48.474;9.138;2023-08-12T12:50:31;14.32;;;3.63;;
20084;SDS011;10202;48.474;9.138;2023-08-12T12:52:59;9.07;;;3.70;;
20084;SDS011;10202;48.474;9.138;2023-08-12T12:55:27;12.10;;;4.32;;
20084;SDS011;10202;48.474;9.138;2023-08-12T12:57:52;6.88;;;3.50;;
20084;SDS011;10202;48.474;9.138;2023-08-12T13:00:17;7.85;;;4.00;;
20084;SDS011;10202;48.474;9.138;2023-08-12T13:02:45;8.95;;;3.83;;
20084;SDS011;10202;48.474;9.138;2023-08-12T13:05:13;8.05;;;3.90;;
20084;SDS011;10202;48.474;9.138;2023-08-12T13:07:38;7.68;;;3.63;;
20084;SDS011;10202;48.474;9.138;2023-08-12T13:10:04;4.28;;;3.50;;
20084;SDS011;10202;48.474;9.138;2023-08-12T13:12:30;6.70;;;3.42;;
20084;SDS011;10202;48.474;9.138;2023-08-12T13:14:56;8.20;;;3.72;;
20084;SDS011;10202;48.474;9.138;2023-08-12T13:17:24;7.13;;;3.30;;
20084;SDS011;10202;48.474;9.138;2023-08-12T13:19:49;3.47;;;3.05;;
20084;SDS011;10202;48.474;9.138;2023-08-12T13:22:17;6.40;;;3.55;;
20084;SDS011;10202;48.474;9.138;2023-08-12T13:24:42;5.95;;;3.05;;
20084;SDS011;10202;48.474;9.138;2023-08-12T13:27:07;3.95;;;3.20;;
20084;SDS011;10202;48.474;9.138;2023-08-12T13:29:36;6.72;;;3.20;;
20084;SDS011;10202;48.474;9.138;2023-08-12T13:32:03;5.25;;;3.17;;
20084;SDS011;10202;48.474;9.138;2023-08-12T13:34:31;8.70;;;3.60;;
20084;SDS011;10202;48.474;9.138;2023-08-12T13:37:04;5.32;;;3.17;;
20084;SDS011;10202;48.474;9.138;2023-08-12T13:39:29;4.85;;;4.35;;
20084;SDS011;10202;48.474;9.138;2023-08-12T13:41:57;7.72;;;4.13;;
20084;SDS011;10202;48.474;9.138;2023-08-12T13:44:24;11.55;;;4.50;;
20084;SDS011;10202;48.474;9.138;2023-08-12T13:46:50;5.38;;;3.80;;
20084;SDS011;10202;48.474;9.138;2023-08-12T13:49:18;5.13;;;4.03;;
20084;SDS011;10202;48.474;9.138;2023-08-12T13:51:43;6.47;;;4.50;;
20084;SDS011;10202;48.474;9.138;2023-08-12T13:54:11;4.68;;;3.92;;
20084;SDS011;10202;48.474;9.138;2023-08-12T13:56:39;6.50;;;4.38;;
20084;SDS011;10202;48.474;9.138;2023-08-12T13:59:09;9.32;;;4.13;;
20084;SDS011;10202;48.474;9.138;2023-08-12T14:01:41;9.25;;;4.25;;
20084;SDS011;10202;48.474;9.138;2023-08-12T14:04:07;10.27;;;4.28;;
20084;SDS011;10202;48.474;9.138;2023-08-12T14:06:32;4.85;;;3.42;;
20084;SDS011;10202;48.474;9.138;2023-08-12T14:09:00;4.25;;;3.22;;
20084;SDS011;10202;48.474;9.138;2023-08-12T14:11:28;6.10;;;3.30;;
20084;SDS011;10202;48.474;9.138;2023-08-12T14:13:58;6.38;;;3.20;;
20084;SDS011;10202;48.474;9.138;2023-08-12T14:16:31;4.93;;;3.42;;
20084;SDS011;10202;48.474;9.138;2023-08-12T14:18:56;4.10;;;2.65;;
20084;SDS011;10202;48.474;9.138;2023-08-12T14:21:31;3.90;;;2.78;;
20084;SDS011;10202;48.474;9.138;2023-08-12T14:23:57;4.65;;;3.05;;
20084;SDS011;10202;48.474;9.138;2023-08-12T14:26:31;3.85;;;2.95;;
20084;SDS011;10202;48.474;9.138;2023-08-12T14:28:56;5.28;;;2.60;;
20084;SDS011;10202;48.474;9.138;2023-08-12T14:31:24;4.68;;;2.50;;
20084;SDS011;10202;48.474;9.138;2023-08-12T14:33:49;3.97;;;2.67;;
20084;SDS011;10202;48.474;9.138;2023-08-12T14:36:22;3.95;;;2.47;;
20084;SDS011;10202;48.474;9.138;2023-08-12T14:38:53;5.18;;;2.50;;
20084;SDS011;10202;48.474;9.138;2023-08-12T14:41:18;4.10;;;2.47;;
20084;SDS011;10202;48.474;9.138;2023-08-12T14:43:50;3.90;;;2.50;;
20084;SDS011;10202;48.474;9.138;2023-08-12T14:46:15;3.30;;;2.60;;
20084;SDS011;10202;48.474;9.138;2023-08-12T14:48:43;4.07;;;2.45;;
20084;SDS011;10202;48.474;9.138;2023-08-12T14:51:08;4.00;;;2.50;;
20084;SDS011;10202;48.474;9.138;2023-08-12T14:53:33;4.38;;;2.72;;
20084;SDS011;10202;48.474;9.138;2023-08-12T14:56:01;3.22;;;2.38;;
20084;SDS011;10202;48.474;9.138;2023-08-12T14:58:29;5.88;;;2.72;;